aviador You're here:

KBIX Decoded Metar

BILOXI in MS, USA
Report Time2017-07-21 01:58:00
UTC Time2017-07-21 02:53:35
Flight Rules vfr VFR
WindCalm
Visibility9999 m
Phenomena:N/A
Clouds:N/A
Expected CloudBase > 2,000 ft AGL from Temp-Dew spread
CeilingNone
Temp30°C (ISA +15)
Dew Point25°C (75% RH)
Heat Index36.3°C
QNH1017 hPa
Density Alt2,041 ft
Elevation33 ft
Report Wrong Elevation
Raw Report
KBIX 210158Z AUTO 00000KT 10SM CLR 30/25 A3002 RMK AO2 SLP168
T02970245=

Extra information for KBIX:More info

Metar Taf Metar & Taf Last 4 Metars F.Rules Stats Wind Profile Meteogram Temp Stats Airport Information Weather charts Add Link Nearby VenuesMetar ALERT Operation Metar Decoded Social comments

AIRNAV info for KBIX